createdAt,value
2023-05-05T00:04:05.592Z,3.00
2023-05-05T00:09:08.514Z,3.20
2023-05-05T00:14:11.488Z,2.70
2023-05-05T00:19:14.277Z,2.60
2023-05-05T00:24:17.096Z,2.90
2023-05-05T00:29:19.890Z,3.40
2023-05-05T00:34:22.901Z,3.30
2023-05-05T00:39:25.698Z,3.00
2023-05-05T00:44:37.968Z,3.00
2023-05-05T00:49:41.245Z,3.00
2023-05-05T00:54:44.134Z,3.30
2023-05-05T00:59:49.367Z,3.20
2023-05-05T01:04:52.818Z,3.80
2023-05-05T01:10:18.001Z,3.80
2023-05-05T01:15:31.786Z,3.20
2023-05-05T01:20:50.408Z,3.90
2023-05-05T01:26:20.091Z,3.10
2023-05-05T01:31:38.974Z,3.70
2023-05-05T01:36:46.157Z,2.60
2023-05-05T01:41:54.257Z,2.70
2023-05-05T01:47:01.350Z,3.00
2023-05-05T01:52:06.150Z,3.50
2023-05-05T01:57:11.335Z,3.80
2023-05-05T02:02:16.251Z,3.80
2023-05-05T02:07:21.547Z,3.40
2023-05-05T02:12:25.080Z,3.30
2023-05-05T02:17:31.264Z,3.00
2023-05-05T02:22:34.204Z,3.20
2023-05-05T02:27:40.974Z,2.70
2023-05-05T02:38:05.732Z,3.60
2023-05-05T02:43:11.962Z,3.30
2023-05-05T02:48:15.134Z,3.30
2023-05-05T02:53:22.347Z,2.50
2023-05-05T02:58:34.870Z,2.70
2023-05-05T03:03:50.413Z,3.00
2023-05-05T03:09:03.210Z,3.50
2023-05-05T03:14:10.094Z,3.00
2023-05-05T03:24:19.016Z,2.80
2023-05-05T03:29:21.982Z,2.60
2023-05-05T03:34:25.763Z,2.80
2023-05-05T03:39:28.535Z,2.90
2023-05-05T03:44:31.361Z,2.60
2023-05-05T03:49:34.135Z,2.50
2023-05-05T03:54:38.347Z,3.10
2023-05-05T03:59:41.406Z,2.50
2023-05-05T04:04:44.965Z,2.50
2023-05-05T04:09:47.726Z,2.50
2023-05-05T04:14:50.484Z,2.80
2023-05-05T04:19:53.255Z,2.40
2023-05-05T04:24:56.036Z,2.50
2023-05-05T04:29:58.881Z,2.70
2023-05-05T04:35:01.706Z,2.50
2023-05-05T04:40:04.914Z,2.60
2023-05-05T04:45:10.357Z,1.80
2023-05-05T04:50:13.939Z,3.00
2023-05-05T04:55:16.712Z,3.30
2023-05-05T05:00:19.526Z,5.80
2023-05-05T05:05:22.512Z,4.00
2023-05-05T05:10:25.740Z,3.00
2023-05-05T05:15:28.590Z,2.70
2023-05-05T05:20:31.762Z,2.60
2023-05-05T05:25:35.983Z,3.10
2023-05-05T05:30:38.951Z,2.30
2023-05-05T05:35:42.923Z,2.90
2023-05-05T05:40:45.711Z,2.90
2023-05-05T05:45:48.549Z,2.60
2023-05-05T05:50:51.469Z,2.50
2023-05-05T05:55:54.182Z,2.30
2023-05-05T06:00:59.162Z,3.20
2023-05-05T06:06:02.178Z,2.90
2023-05-05T06:11:05.038Z,2.60
2023-05-05T06:16:08.410Z,2.60
2023-05-05T06:21:11.450Z,2.70
2023-05-05T06:26:14.494Z,2.20
2023-05-05T06:31:17.573Z,2.60
2023-05-05T06:36:20.514Z,2.80
2023-05-05T06:41:23.269Z,2.60
2023-05-05T06:46:28.336Z,2.30
2023-05-05T06:51:31.846Z,2.10
2023-05-05T06:56:34.812Z,2.30
2023-05-05T07:01:37.517Z,2.20
2023-05-05T07:06:40.404Z,2.30
2023-05-05T07:11:52.006Z,2.40
2023-05-05T07:16:54.829Z,2.10
2023-05-05T07:22:03.588Z,2.50
2023-05-05T07:32:24.306Z,2.00
2023-05-05T07:37:36.504Z,2.30
2023-05-05T07:42:39.340Z,2.30
2023-05-05T07:47:42.281Z,2.60
2023-05-05T07:52:51.824Z,1.90
2023-05-05T07:57:59.098Z,2.20
2023-05-05T08:03:01.972Z,2.20
2023-05-05T08:08:07.564Z,2.00
2023-05-05T08:18:14.938Z,2.10
2023-05-05T08:23:17.739Z,2.30
2023-05-05T08:28:20.531Z,1.90
2023-05-05T08:33:23.273Z,2.20
2023-05-05T08:38:27.960Z,1.80
2023-05-05T08:43:31.034Z,2.30
2023-05-05T08:48:35.745Z,1.80
2023-05-05T08:53:51.755Z,2.20
2023-05-05T08:58:56.455Z,2.00
2023-05-05T09:04:04.894Z,1.90
2023-05-05T09:09:08.544Z,1.90
2023-05-05T09:19:31.736Z,2.00
2023-05-05T09:24:34.610Z,2.20
2023-05-05T09:29:37.935Z,2.00
2023-05-05T09:34:41.283Z,2.00
2023-05-05T09:39:54.767Z,2.00
2023-05-05T09:44:59.782Z,2.50
2023-05-05T09:50:11.447Z,2.10
2023-05-05T09:55:19.023Z,2.30
2023-05-05T10:00:41.804Z,2.20
2023-05-05T10:05:55.481Z,2.00
2023-05-05T10:11:08.072Z,2.40
2023-05-05T10:16:14.748Z,2.10
2023-05-05T10:21:25.674Z,2.10
2023-05-05T10:26:34.892Z,2.20
2023-05-05T10:31:47.205Z,1.90
2023-05-05T10:36:51.753Z,2.30
2023-05-05T10:41:55.882Z,1.80
2023-05-05T10:47:00.496Z,1.90
2023-05-05T10:52:06.987Z,2.00
2023-05-05T10:57:12.129Z,2.00
2023-05-05T11:02:29.605Z,2.10
2023-05-05T11:07:50.124Z,1.30
2023-05-05T11:12:58.333Z,1.80
2023-05-05T11:18:05.775Z,2.30
2023-05-05T11:23:29.977Z,2.70
2023-05-05T11:28:32.883Z,1.90
2023-05-05T11:33:37.763Z,2.10
2023-05-05T11:38:55.969Z,1.40
2023-05-05T11:44:11.905Z,1.70
2023-05-05T11:49:29.066Z,2.00
2023-05-05T11:54:32.945Z,1.60
2023-05-05T11:59:49.650Z,1.70
2023-05-05T12:04:52.994Z,1.20
2023-05-05T12:09:56.169Z,1.70
2023-05-05T12:14:59.076Z,1.30
2023-05-05T12:20:01.933Z,1.80
2023-05-05T12:25:07.013Z,1.70
2023-05-05T12:30:12.657Z,1.70
2023-05-05T12:35:16.185Z,1.50
2023-05-05T12:40:48.551Z,1.70
2023-05-05T12:46:12.224Z,1.90
2023-05-05T12:51:16.892Z,1.70
2023-05-05T12:56:38.170Z,1.50
2023-05-05T13:01:58.014Z,1.60
2023-05-05T13:07:14.910Z,1.80
2023-05-05T13:12:18.629Z,1.20
2023-05-05T13:17:21.408Z,1.80
2023-05-05T13:22:24.213Z,1.80
2023-05-05T13:27:27.319Z,1.50
2023-05-05T13:32:30.174Z,1.70
2023-05-05T13:37:33.010Z,1.70
2023-05-05T13:42:35.769Z,1.60
2023-05-05T13:47:39.087Z,1.40
2023-05-05T13:52:42.058Z,1.60
2023-05-05T13:57:44.956Z,1.30
2023-05-05T14:02:48.296Z,1.60
2023-05-05T14:07:51.363Z,1.50
2023-05-05T14:12:54.218Z,1.50
2023-05-05T14:17:57.199Z,1.40
2023-05-05T14:23:00.534Z,1.60
2023-05-05T14:28:04.172Z,1.60
2023-05-05T14:33:08.271Z,1.50
2023-05-05T14:38:11.283Z,1.30
2023-05-05T14:43:16.323Z,1.60
2023-05-05T14:48:22.256Z,1.70
2023-05-05T14:53:25.279Z,1.40
2023-05-05T14:58:28.130Z,1.50
2023-05-05T15:03:31.733Z,1.40
2023-05-05T15:08:34.952Z,1.60
2023-05-05T15:13:41.694Z,1.20
2023-05-05T15:18:44.450Z,1.60
2023-05-05T15:23:47.195Z,1.70
2023-05-05T15:28:50.467Z,1.40
2023-05-05T15:33:53.376Z,1.80
2023-05-05T15:38:56.817Z,1.90
2023-05-05T15:44:00.793Z,1.60
2023-05-05T15:49:03.720Z,1.30
2023-05-05T15:54:07.845Z,1.50
2023-05-05T15:59:10.613Z,1.50
2023-05-05T16:04:13.834Z,1.60
2023-05-05T16:09:17.709Z,1.80
2023-05-05T16:14:20.812Z,2.20
2023-05-05T16:19:30.883Z,1.20
2023-05-05T16:24:33.738Z,2.00
2023-05-05T16:29:36.798Z,1.80
2023-05-05T16:34:39.733Z,1.30
2023-05-05T16:39:42.608Z,1.30
2023-05-05T16:44:45.389Z,1.80
2023-05-05T16:49:48.223Z,1.50
2023-05-05T16:54:56.110Z,1.30
2023-05-05T16:59:59.404Z,1.50
2023-05-05T17:05:02.736Z,2.00
2023-05-05T17:10:06.902Z,1.60
2023-05-05T17:15:10.261Z,1.60
2023-05-05T17:20:13.399Z,1.80
2023-05-05T17:25:19.187Z,1.50
2023-05-05T17:30:22.189Z,1.60
2023-05-05T17:35:25.046Z,1.80
2023-05-05T17:40:28.958Z,1.80
2023-05-05T17:45:32.211Z,1.70
2023-05-05T17:50:35.023Z,1.90
2023-05-05T17:55:37.981Z,1.40
2023-05-05T18:00:40.873Z,1.70
2023-05-05T18:05:43.747Z,2.00
2023-05-05T18:10:46.709Z,1.70
2023-05-05T18:15:49.487Z,1.80
2023-05-05T18:20:52.335Z,1.80
2023-05-05T18:25:55.153Z,1.70
2023-05-05T18:30:57.923Z,2.20
2023-05-05T18:36:03.802Z,2.10
2023-05-05T18:41:06.745Z,1.90
2023-05-05T18:46:09.497Z,2.00
2023-05-05T18:51:12.297Z,2.50
2023-05-05T18:56:15.047Z,2.80
2023-05-05T19:01:18.019Z,2.10
2023-05-05T19:06:20.945Z,2.50
2023-05-05T19:11:24.087Z,2.80
2023-05-05T19:16:27.880Z,2.70
2023-05-05T19:21:32.035Z,2.40
2023-05-05T19:26:34.817Z,2.30
2023-05-05T19:31:37.551Z,2.70
2023-05-05T19:36:40.334Z,2.30
2023-05-05T19:41:43.099Z,3.10
2023-05-05T19:46:48.011Z,2.70
2023-05-05T19:51:52.167Z,3.10
2023-05-05T19:56:57.176Z,2.70
2023-05-05T20:02:01.907Z,2.90
2023-05-05T20:07:04.707Z,2.40
2023-05-05T20:12:07.753Z,2.20
2023-05-05T20:17:12.060Z,3.00
2023-05-05T20:22:14.809Z,2.70
2023-05-05T20:27:17.597Z,3.50
2023-05-05T20:32:22.242Z,2.70
2023-05-05T20:37:27.174Z,2.60
2023-05-05T20:42:31.253Z,2.50
2023-05-05T20:47:35.754Z,2.80
2023-05-05T20:52:38.718Z,3.00
2023-05-05T20:57:41.495Z,2.50
2023-05-05T21:02:44.488Z,3.30
2023-05-05T21:07:47.537Z,2.60
2023-05-05T21:12:50.473Z,3.40
2023-05-05T21:17:55.190Z,2.90
2023-05-05T21:22:57.997Z,3.00
2023-05-05T21:28:00.767Z,3.00
2023-05-05T21:33:03.765Z,3.10
2023-05-05T21:38:06.720Z,2.40
2023-05-05T21:43:09.532Z,3.00
2023-05-05T21:48:12.339Z,3.10
2023-05-05T21:53:15.332Z,3.50
2023-05-05T21:58:18.073Z,2.90
2023-05-05T22:03:21.360Z,3.50
2023-05-05T22:08:24.503Z,3.60
2023-05-05T22:13:27.312Z,3.70
2023-05-05T22:18:30.128Z,3.70
2023-05-05T22:23:32.933Z,4.40
2023-05-05T22:28:36.222Z,4.00
2023-05-05T22:33:39.036Z,4.30
2023-05-05T22:38:42.369Z,3.70
2023-05-05T22:43:45.283Z,4.10
2023-05-05T22:48:49.134Z,4.00
2023-05-05T22:53:51.975Z,4.60
2023-05-05T22:58:54.802Z,4.80
2023-05-05T23:03:57.600Z,5.30
2023-05-05T23:09:02.743Z,6.70
2023-05-05T23:14:05.535Z,5.70
2023-05-05T23:19:08.312Z,5.00
2023-05-05T23:24:11.138Z,4.30
2023-05-05T23:29:13.931Z,4.50
2023-05-05T23:34:16.876Z,4.00
2023-05-05T23:39:19.698Z,3.90
2023-05-05T23:44:22.466Z,4.10
2023-05-05T23:49:26.469Z,4.40
2023-05-05T23:54:29.495Z,4.50
2023-05-05T23:59:32.291Z,4.00
